Caliope — WDI8222 — position and weather

sailwx.info

Track history (hours):
 
Tides and Currents Weather Stations Pressure Air Temp Water Temp Dewpoint Dewpoint Depression Visibility Wind Speed Wind Dir Waves Ship Positions

Caliope

Owner: CALIOPE INC., Miami, FL. More information available from US FCC via Universal Licensing System and Coast Guard Vessel Documentation Center.

Last reported at 2018-Jun-14 13:19 UTC. Time now 2018-Jun-21 06:44 UTC.
Position N 36°55' W 008°07'.

Length 17 m.

Type: Sailing vessel. MMSI: 367736440.

Date/timePositionNaut miles runAvg speedWind from/ knotsBaromVisibWave heightAir tempDewpointWater temp
2018-Jun-14 13:19N 36°55' W 008°07'2 5.6
2018-Jun-14 12:59N 36°56' W 008°09'3 6.0
2018-Jun-14 12:30N 36°57' W 008°12'4 7.4
2018-Jun-14 11:59N 36°58' W 008°17'4 7.3
2018-Jun-14 11:30N 36°60' W 008°21'6 7.1
2018-Jun-14 10:43N 37°02' W 008°27'8 7.0
2018-Jun-14 09:32N 37°05' W 008°37'1 7.0
2018-Jun-14 09:22N 37°05' W 008°38'1 3.8
2018-Jun-14 09:00N 37°06' W 008°40'1 1.0
2018-Jun-14 08:29N 37°06' W 008°40'0 0.1
2018-Jun-14 05:38N 37°07' W 008°41'0 0.0
2018-Jun-14 05:26N 37°07' W 008°41'0 0.0
2018-Jun-14 04:56N 37°07' W 008°41'0 0.0
2018-Jun-14 03:38N 37°07' W 008°41'0 0.0
2018-Jun-14 03:26N 37°07' W 008°41'0 0.0
2018-Jun-14 02:44N 37°07' W 008°41'0 0.0
2018-Jun-14 02:29N 37°07' W 008°41'0 0.0
2018-Jun-14 01:56N 37°07' W 008°41'0 0.0
2018-Jun-14 01:26N 37°07' W 008°41'0 0.0
2018-Jun-14 00:59N 37°07' W 008°41'0 0.0
2018-Jun-14 00:08N 37°07' W 008°41'0 0.0
2018-Jun-13 23:56N 37°07' W 008°41'0 0.0
2018-Jun-13 23:29N 37°07' W 008°41'0 0.0
2018-Jun-13 22:47N 37°07' W 008°41'0 0.0
2018-Jun-13 22:14N 37°07' W 008°41'0 0.0
2018-Jun-13 21:56N 37°07' W 008°41'0 0.0
2018-Jun-13 21:26N 37°07' W 008°41'0 0.0
2018-Jun-13 20:56N 37°07' W 008°41'0 0.0
2018-Jun-13 20:25N 37°07' W 008°41'0 0.0
2018-Jun-13 19:59N 37°07' W 008°41'0 0.0
2018-Jun-13 19:11N 37°07' W 008°41'0 0.0
2018-Jun-13 18:50N 37°07' W 008°41'0 0.0
2018-Jun-13 18:23N 37°07' W 008°41'0 0.0
2018-Jun-13 17:53N 37°07' W 008°41'0 0.0
2018-Jun-13 17:19N 37°07' W 008°41'0 0.0
2018-Jun-13 16:26N 37°07' W 008°41'0 0.0
2018-Jun-13 15:59N 37°07' W 008°41'0 0.0
2018-Jun-13 14:59N 37°07' W 008°41'0 0.0
2018-Jun-13 11:53N 37°07' W 008°41'0 0.0
2018-Jun-13 11:26N 37°07' W 008°41'0 0.0
2018-Jun-13 10:47N 37°07' W 008°41'0 0.0
2018-Jun-13 10:23N 37°07' W 008°41'0 0.0
2018-Jun-13 09:59N 37°07' W 008°41'0 0.0
2018-Jun-13 09:23N 37°07' W 008°41'0 0.0
2018-Jun-13 08:23N 37°07' W 008°41'0 0.0
2018-Jun-13 07:53N 37°07' W 008°41'0 0.0
2018-Jun-12 20:23N 37°07' W 008°41'0 0.0
2018-Jun-12 19:17N 37°07' W 008°41'0 0.0
2018-Jun-12 17:53N 37°07' W 008°41'0 0.0
2018-Jun-12 17:11N 37°07' W 008°41'0 0.0
2018-Jun-12 16:35N 37°07' W 008°41'0 0.0
2018-Jun-12 16:23N 37°07' W 008°41'0 0.0
2018-Jun-12 15:59N 37°07' W 008°41'0 0.0
2018-Jun-12 15:29N 37°07' W 008°41'0 0.0
2018-Jun-12 14:59N 37°07' W 008°41'0 0.0
2018-Jun-12 13:53N 37°07' W 008°41'0 0.0
2018-Jun-12 13:29N 37°07' W 008°41'0 0.0
2018-Jun-12 12:26N 37°07' W 008°41'0 0.0
2018-Jun-12 11:59N 37°07' W 008°41'0 0.0
2018-Jun-12 11:05N 37°07' W 008°41'0 0.0
2018-Jun-12 10:59N 37°07' W 008°41'0 0.0
2018-Jun-12 08:47N 37°07' W 008°41'0 0.0
2018-Jun-12 08:29N 37°07' W 008°41'0 0.0
2018-Jun-12 07:59N 37°07' W 008°41'0 0.0
2018-Jun-12 03:11N 37°07' W 008°41'0 0.0
2018-Jun-12 02:46N 37°07' W 008°41'0 0.0
2018-Jun-12 02:16N 37°07' W 008°41'0 0.0
2018-Jun-12 01:58N 37°07' W 008°41'0 0.0
2018-Jun-12 01:22N 37°07' W 008°41'0 0.0
2018-Jun-12 00:58N 37°07' W 008°41'0 0.0
2018-Jun-12 00:28N 37°07' W 008°41'0 0.0
2018-Jun-11 23:52N 37°07' W 008°41'0 0.0
2018-Jun-11 23:28N 37°07' W 008°41'0 0.0
2018-Jun-11 22:52N 37°07' W 008°41'0 0.0
2018-Jun-11 21:40N 37°07' W 008°41'0 0.0
2018-Jun-11 21:07N 37°07' W 008°41'0 0.0
2018-Jun-11 20:58N 37°07' W 008°41'0 0.0
2018-Jun-11 20:16N 37°07' W 008°41'0 0.0
2018-Jun-11 19:16N 37°07' W 008°41'0 0.0
2018-Jun-11 18:52N 37°07' W 008°41'0 0.0
2018-Jun-11 18:22N 37°07' W 008°41'0 0.0
2018-Jun-11 17:58N 37°07' W 008°41'0 0.0
2018-Jun-11 17:28N 37°07' W 008°41'0 0.0
2018-Jun-11 16:58N 37°07' W 008°41'0 0.0
2018-Jun-11 16:28N 37°07' W 008°41'0 0.0
2018-Jun-11 06:57N 37°07' W 008°41'0 0.0
2018-Jun-11 06:27N 37°07' W 008°41'0 0.0
2018-Jun-11 05:51N 37°07' W 008°41'0 0.0
2018-Jun-11 05:27N 37°07' W 008°41'0 0.0
2018-Jun-10 22:15N 37°07' W 008°41'0 0.0
2018-Jun-10 20:33N 37°07' W 008°41'0 0.0
2018-Jun-10 20:15N 37°07' W 008°41'0 0.0
2018-Jun-10 18:57N 37°07' W 008°41'0 0.0
2018-Jun-10 17:45N 37°07' W 008°41'0 0.0
2018-Jun-10 17:06N 37°07' W 008°41'0 0.1
2018-Jun-10 15:29N 37°06' W 008°40'0 0.0
2018-Jun-10 14:47N 37°06' W 008°40'0 0.0
2018-Jun-10 13:56N 37°06' W 008°40'0 0.0
2018-Jun-10 12:41N 37°06' W 008°40'0 0.0
2018-Jun-10 12:17N 37°06' W 008°40'0 0.0
2018-Jun-10 11:53N 37°06' W 008°40'0 0.1
2018-Jun-10 11:23N 37°06' W 008°40'2 3.8
2018-Jun-10 10:55N 37°05' W 008°40'  
2018-Jun-06 06:16N 37°39' W 023°37'3 7.1
2018-Jun-06 05:48N 37°39' W 023°42'3 6.7
2018-Jun-06 05:18N 37°39' W 023°46'2 6.9
2018-Jun-06 05:00N 37°39' W 023°48'3 6.7
2018-Jun-06 04:29N 37°39' W 023°53'3 6.5
2018-Jun-06 03:59N 37°39' W 023°57'3 6.8
2018-Jun-06 03:30N 37°39' W 024°01'3 6.6
2018-Jun-06 02:59N 37°39' W 024°05'3 6.4
2018-Jun-06 02:29N 37°39' W 024°09'4 7.4
2018-Jun-06 01:56N 37°39' W 024°14'4 8.0
2018-Jun-06 01:28N 37°39' W 024°19'4 8.1
2018-Jun-06 00:59N 37°40' W 024°24'4 7.5
2018-Jun-06 00:26N 37°40' W 024°29'3 7.5
2018-Jun-05 23:59N 37°40' W 024°34'4 7.6
2018-Jun-05 23:28N 37°40' W 024°38'3 7.2
2018-Jun-05 23:00N 37°39' W 024°43'4 7.2
2018-Jun-05 22:29N 37°39' W 024°47'4 7.5
2018-Jun-05 22:00N 37°39' W 024°52'4 7.1
2018-Jun-05 21:30N 37°39' W 024°56'4 7.0
2018-Jun-05 20:59N 37°39' W 025°01'4 7.6
2018-Jun-05 20:30N 37°39' W 025°06'4 8.2
2018-Jun-05 19:59N 37°39' W 025°11'4 8.5
2018-Jun-05 19:30N 37°39' W 025°16'4 8.1
2018-Jun-05 18:57N 37°39' W 025°22'4 8.9
2018-Jun-05 18:30N 37°40' W 025°27'4 8.4
2018-Jun-05 18:00N 37°42' W 025°31'4 7.9
2018-Jun-05 17:30N 37°43' W 025°36'3 6.3
2018-Jun-05 17:00N 37°44' W 025°40'0 0.0
2018-Jun-05 16:30N 37°44' W 025°40'0 0.0
2018-Jun-05 16:00N 37°44' W 025°40'0 0.0
2018-Jun-05 15:27N 37°44' W 025°40'0 0.0
2018-Jun-05 15:00N 37°44' W 025°40'0 0.0
2018-Jun-05 14:27N 37°44' W 025°40'0 0.0
2018-Jun-05 13:57N 37°44' W 025°40'0 0.0
2018-Jun-05 13:24N 37°44' W 025°40'0 0.0
2018-Jun-05 13:00N 37°44' W 025°40'0 0.0
2018-Jun-05 12:30N 37°44' W 025°40'0 0.0
2018-Jun-05 12:00N 37°44' W 025°40'0 0.0
2018-Jun-05 11:15N 37°44' W 025°40'0 0.0
2018-Jun-05 11:00N 37°44' W 025°40'0 0.0
2018-Jun-05 10:27N 37°44' W 025°40'0 0.0
2018-Jun-05 09:57N 37°44' W 025°40'0 0.0
2018-Jun-05 09:30N 37°44' W 025°40'0 0.0
2018-Jun-05 08:54N 37°44' W 025°40'0 0.0
2018-Jun-05 08:30N 37°44' W 025°40'0 0.0
2018-Jun-05 08:00N 37°44' W 025°40'0 0.0
2018-Jun-05 07:30N 37°44' W 025°40'0 0.0
2018-Jun-05 07:00N 37°44' W 025°40'0 0.0
2018-Jun-05 06:30N 37°44' W 025°40'0 0.0
2018-Jun-05 06:00N 37°44' W 025°40'0 0.0
2018-Jun-05 05:21N 37°44' W 025°40'0 0.0
2018-Jun-05 05:00N 37°44' W 025°40'0 0.0
2018-Jun-05 04:30N 37°44' W 025°40'0 0.0
2018-Jun-05 04:00N 37°44' W 025°40'0 0.0
2018-Jun-05 03:30N 37°44' W 025°40'0 0.0
2018-Jun-05 03:00N 37°44' W 025°40'0 0.0
2018-Jun-05 02:30N 37°44' W 025°40'0 0.0
2018-Jun-05 01:51N 37°44' W 025°40'0 0.0
2018-Jun-05 01:27N 37°44' W 025°40'0 0.0
2018-Jun-05 00:57N 37°44' W 025°40'0 0.0
2018-Jun-05 00:30N 37°44' W 025°40'0 0.0
2018-Jun-04 23:51N 37°44' W 025°40'0 0.0
2018-Jun-04 23:24N 37°44' W 025°40'0 0.0
2018-Jun-04 22:54N 37°44' W 025°40'0 0.0
2018-Jun-04 22:30N 37°44' W 025°40'0 0.0
2018-Jun-04 21:57N 37°44' W 025°40'0 0.0
2018-Jun-04 21:30N 37°44' W 025°40'0 0.0
2018-Jun-04 20:45N 37°44' W 025°40'0 0.0
2018-Jun-04 20:27N 37°44' W 025°40'0 0.0
2018-Jun-04 20:00N 37°44' W 025°40'0 0.0
2018-Jun-04 19:27N 37°44' W 025°40'0 0.0
2018-Jun-04 19:00N 37°44' W 025°40'0 0.0
2018-Jun-04 18:24N 37°44' W 025°40'0 0.0
2018-Jun-04 18:00N 37°44' W 025°40'0 0.0
2018-Jun-04 17:30N 37°44' W 025°40'0 0.0
2018-Jun-04 16:57N 37°44' W 025°40'0 0.0
2018-Jun-04 16:30N 37°44' W 025°40'0 0.0
2018-Jun-04 15:51N 37°44' W 025°40'0 0.0
2018-Jun-04 15:27N 37°44' W 025°40'0 0.0
2018-Jun-04 14:57N 37°44' W 025°40'0 0.0
2018-Jun-04 14:27N 37°44' W 025°40'0 0.0
2018-Jun-04 13:57N 37°44' W 025°40'0 0.0
2018-Jun-04 13:27N 37°44' W 025°40'  
Track history (hours):
 
Tides and Currents Weather Stations Pressure Air Temp Water Temp Dewpoint Dewpoint Depression Visibility Wind Speed Wind Dir Waves Ship Positions

Caliope

Owner: CALIOPE INC., Miami, FL. More information available from US FCC via Universal Licensing System and Coast Guard Vessel Documentation Center.

Last reported at 2018-Jun-14 13:19 UTC. Time now 2018-Jun-21 06:44 UTC.
Position N 36°55' W 008°07'.

Length 17 m.

Type: Sailing vessel. MMSI: 367736440.

Date/timePositionNaut miles runAvg speedWind from/ knotsBaromVisibWave heightAir tempDewpointWater temp
2018-Jun-14 13:19N 36°55' W 008°07'2 5.6
2018-Jun-14 12:59N 36°56' W 008°09'3 6.0
2018-Jun-14 12:30N 36°57' W 008°12'4 7.4
2018-Jun-14 11:59N 36°58' W 008°17'4 7.3
2018-Jun-14 11:30N 36°60' W 008°21'6 7.1
2018-Jun-14 10:43N 37°02' W 008°27'8 7.0
2018-Jun-14 09:32N 37°05' W 008°37'1 7.0
2018-Jun-14 09:22N 37°05' W 008°38'1 3.8
2018-Jun-14 09:00N 37°06' W 008°40'1 1.0
2018-Jun-14 08:29N 37°06' W 008°40'0 0.1
2018-Jun-14 05:38N 37°07' W 008°41'0 0.0
2018-Jun-14 05:26N 37°07' W 008°41'0 0.0
2018-Jun-14 04:56N 37°07' W 008°41'0 0.0
2018-Jun-14 03:38N 37°07' W 008°41'0 0.0
2018-Jun-14 03:26N 37°07' W 008°41'0 0.0
2018-Jun-14 02:44N 37°07' W 008°41'0 0.0
2018-Jun-14 02:29N 37°07' W 008°41'0 0.0
2018-Jun-14 01:56N 37°07' W 008°41'0 0.0
2018-Jun-14 01:26N 37°07' W 008°41'0 0.0
2018-Jun-14 00:59N 37°07' W 008°41'0 0.0
2018-Jun-14 00:08N 37°07' W 008°41'0 0.0
2018-Jun-13 23:56N 37°07' W 008°41'0 0.0
2018-Jun-13 23:29N 37°07' W 008°41'0 0.0
2018-Jun-13 22:47N 37°07' W 008°41'0 0.0
2018-Jun-13 22:14N 37°07' W 008°41'0 0.0
2018-Jun-13 21:56N 37°07' W 008°41'0 0.0
2018-Jun-13 21:26N 37°07' W 008°41'0 0.0
2018-Jun-13 20:56N 37°07' W 008°41'0 0.0
2018-Jun-13 20:25N 37°07' W 008°41'0 0.0
2018-Jun-13 19:59N 37°07' W 008°41'0 0.0
2018-Jun-13 19:11N 37°07' W 008°41'0 0.0
2018-Jun-13 18:50N 37°07' W 008°41'0 0.0
2018-Jun-13 18:23N 37°07' W 008°41'0 0.0
2018-Jun-13 17:53N 37°07' W 008°41'0 0.0
2018-Jun-13 17:19N 37°07' W 008°41'0 0.0
2018-Jun-13 16:26N 37°07' W 008°41'0 0.0
2018-Jun-13 15:59N 37°07' W 008°41'0 0.0
2018-Jun-13 14:59N 37°07' W 008°41'0 0.0
2018-Jun-13 11:53N 37°07' W 008°41'0 0.0
2018-Jun-13 11:26N 37°07' W 008°41'0 0.0
2018-Jun-13 10:47N 37°07' W 008°41'0 0.0
2018-Jun-13 10:23N 37°07' W 008°41'0 0.0
2018-Jun-13 09:59N 37°07' W 008°41'0 0.0
2018-Jun-13 09:23N 37°07' W 008°41'0 0.0
2018-Jun-13 08:23N 37°07' W 008°41'0 0.0
2018-Jun-13 07:53N 37°07' W 008°41'0 0.0
2018-Jun-12 20:23N 37°07' W 008°41'0 0.0
2018-Jun-12 19:17N 37°07' W 008°41'0 0.0
2018-Jun-12 17:53N 37°07' W 008°41'0 0.0
2018-Jun-12 17:11N 37°07' W 008°41'0 0.0
2018-Jun-12 16:35N 37°07' W 008°41'0 0.0
2018-Jun-12 16:23N 37°07' W 008°41'0 0.0
2018-Jun-12 15:59N 37°07' W 008°41'0 0.0
2018-Jun-12 15:29N 37°07' W 008°41'0 0.0
2018-Jun-12 14:59N 37°07' W 008°41'0 0.0
2018-Jun-12 13:53N 37°07' W 008°41'0 0.0
2018-Jun-12 13:29N 37°07' W 008°41'0 0.0
2018-Jun-12 12:26N 37°07' W 008°41'0 0.0
2018-Jun-12 11:59N 37°07' W 008°41'0 0.0
2018-Jun-12 11:05N 37°07' W 008°41'0 0.0
2018-Jun-12 10:59N 37°07' W 008°41'0 0.0
2018-Jun-12 08:47N 37°07' W 008°41'0 0.0
2018-Jun-12 08:29N 37°07' W 008°41'0 0.0
2018-Jun-12 07:59N 37°07' W 008°41'0 0.0
2018-Jun-12 03:11N 37°07' W 008°41'0 0.0
2018-Jun-12 02:46N 37°07' W 008°41'0 0.0
2018-Jun-12 02:16N 37°07' W 008°41'0 0.0
2018-Jun-12 01:58N 37°07' W 008°41'0 0.0
2018-Jun-12 01:22N 37°07' W 008°41'0 0.0
2018-Jun-12 00:58N 37°07' W 008°41'0 0.0
2018-Jun-12 00:28N 37°07' W 008°41'0 0.0
2018-Jun-11 23:52N 37°07' W 008°41'0 0.0
2018-Jun-11 23:28N 37°07' W 008°41'0 0.0
2018-Jun-11 22:52N 37°07' W 008°41'0 0.0
2018-Jun-11 21:40N 37°07' W 008°41'0 0.0
2018-Jun-11 21:07N 37°07' W 008°41'0 0.0
2018-Jun-11 20:58N 37°07' W 008°41'0 0.0
2018-Jun-11 20:16N 37°07' W 008°41'0 0.0
2018-Jun-11 19:16N 37°07' W 008°41'0 0.0
2018-Jun-11 18:52N 37°07' W 008°41'0 0.0
2018-Jun-11 18:22N 37°07' W 008°41'0 0.0
2018-Jun-11 17:58N 37°07' W 008°41'0 0.0
2018-Jun-11 17:28N 37°07' W 008°41'0 0.0
2018-Jun-11 16:58N 37°07' W 008°41'0 0.0
2018-Jun-11 16:28N 37°07' W 008°41'0 0.0
2018-Jun-11 06:57N 37°07' W 008°41'0 0.0
2018-Jun-11 06:27N 37°07' W 008°41'0 0.0
2018-Jun-11 05:51N 37°07' W 008°41'0 0.0
2018-Jun-11 05:27N 37°07' W 008°41'0 0.0
2018-Jun-10 22:15N 37°07' W 008°41'0 0.0
2018-Jun-10 20:33N 37°07' W 008°41'0 0.0
2018-Jun-10 20:15N 37°07' W 008°41'0 0.0
2018-Jun-10 18:57N 37°07' W 008°41'0 0.0
2018-Jun-10 17:45N 37°07' W 008°41'0 0.0
2018-Jun-10 17:06N 37°07' W 008°41'0 0.1
2018-Jun-10 15:29N 37°06' W 008°40'0 0.0
2018-Jun-10 14:47N 37°06' W 008°40'0 0.0
2018-Jun-10 13:56N 37°06' W 008°40'0 0.0
2018-Jun-10 12:41N 37°06' W 008°40'0 0.0
2018-Jun-10 12:17N 37°06' W 008°40'0 0.0
2018-Jun-10 11:53N 37°06' W 008°40'0 0.1
2018-Jun-10 11:23N 37°06' W 008°40'2 3.8
2018-Jun-10 10:55N 37°05' W 008°40'  
2018-Jun-06 06:16N 37°39' W 023°37'3 7.1
2018-Jun-06 05:48N 37°39' W 023°42'3 6.7
2018-Jun-06 05:18N 37°39' W 023°46'2 6.9
2018-Jun-06 05:00N 37°39' W 023°48'3 6.7
2018-Jun-06 04:29N 37°39' W 023°53'3 6.5
2018-Jun-06 03:59N 37°39' W 023°57'3 6.8
2018-Jun-06 03:30N 37°39' W 024°01'3 6.6
2018-Jun-06 02:59N 37°39' W 024°05'3 6.4
2018-Jun-06 02:29N 37°39' W 024°09'4 7.4
2018-Jun-06 01:56N 37°39' W 024°14'4 8.0
2018-Jun-06 01:28N 37°39' W 024°19'4 8.1
2018-Jun-06 00:59N 37°40' W 024°24'4 7.5
2018-Jun-06 00:26N 37°40' W 024°29'3 7.5
2018-Jun-05 23:59N 37°40' W 024°34'4 7.6
2018-Jun-05 23:28N 37°40' W 024°38'3 7.2
2018-Jun-05 23:00N 37°39' W 024°43'4 7.2
2018-Jun-05 22:29N 37°39' W 024°47'4 7.5
2018-Jun-05 22:00N 37°39' W 024°52'4 7.1
2018-Jun-05 21:30N 37°39' W 024°56'4 7.0
2018-Jun-05 20:59N 37°39' W 025°01'4 7.6
2018-Jun-05 20:30N 37°39' W 025°06'4 8.2
2018-Jun-05 19:59N 37°39' W 025°11'4 8.5
2018-Jun-05 19:30N 37°39' W 025°16'4 8.1
2018-Jun-05 18:57N 37°39' W 025°22'4 8.9
2018-Jun-05 18:30N 37°40' W 025°27'4 8.4
2018-Jun-05 18:00N 37°42' W 025°31'4 7.9
2018-Jun-05 17:30N 37°43' W 025°36'3 6.3
2018-Jun-05 17:00N 37°44' W 025°40'0 0.0
2018-Jun-05 16:30N 37°44' W 025°40'0 0.0
2018-Jun-05 16:00N 37°44' W 025°40'0 0.0
2018-Jun-05 15:27N 37°44' W 025°40'0 0.0
2018-Jun-05 15:00N 37°44' W 025°40'0 0.0
2018-Jun-05 14:27N 37°44' W 025°40'0 0.0
2018-Jun-05 13:57N 37°44' W 025°40'0 0.0
2018-Jun-05 13:24N 37°44' W 025°40'0 0.0
2018-Jun-05 13:00N 37°44' W 025°40'0 0.0
2018-Jun-05 12:30N 37°44' W 025°40'0 0.0
2018-Jun-05 12:00N 37°44' W 025°40'0 0.0
2018-Jun-05 11:15N 37°44' W 025°40'0 0.0
2018-Jun-05 11:00N 37°44' W 025°40'0 0.0
2018-Jun-05 10:27N 37°44' W 025°40'0 0.0
2018-Jun-05 09:57N 37°44' W 025°40'0 0.0
2018-Jun-05 09:30N 37°44' W 025°40'0 0.0
2018-Jun-05 08:54N 37°44' W 025°40'0 0.0
2018-Jun-05 08:30N 37°44' W 025°40'0 0.0
2018-Jun-05 08:00N 37°44' W 025°40'0 0.0
2018-Jun-05 07:30N 37°44' W 025°40'0 0.0
2018-Jun-05 07:00N 37°44' W 025°40'0 0.0
2018-Jun-05 06:30N 37°44' W 025°40'0 0.0
2018-Jun-05 06:00N 37°44' W 025°40'0 0.0
2018-Jun-05 05:21N 37°44' W 025°40'0 0.0
2018-Jun-05 05:00N 37°44' W 025°40'0 0.0
2018-Jun-05 04:30N 37°44' W 025°40'0 0.0
2018-Jun-05 04:00N 37°44' W 025°40'0 0.0
2018-Jun-05 03:30N 37°44' W 025°40'0 0.0
2018-Jun-05 03:00N 37°44' W 025°40'0 0.0
2018-Jun-05 02:30N 37°44' W 025°40'0 0.0
2018-Jun-05 01:51N 37°44' W 025°40'0 0.0
2018-Jun-05 01:27N 37°44' W 025°40'0 0.0
2018-Jun-05 00:57N 37°44' W 025°40'0 0.0
2018-Jun-05 00:30N 37°44' W 025°40'0 0.0
2018-Jun-04 23:51N 37°44' W 025°40'0 0.0
2018-Jun-04 23:24N 37°44' W 025°40'0 0.0
2018-Jun-04 22:54N 37°44' W 025°40'0 0.0
2018-Jun-04 22:30N 37°44' W 025°40'0 0.0
2018-Jun-04 21:57N 37°44' W 025°40'0 0.0
2018-Jun-04 21:30N 37°44' W 025°40'0 0.0
2018-Jun-04 20:45N 37°44' W 025°40'0 0.0
2018-Jun-04 20:27N 37°44' W 025°40'0 0.0
2018-Jun-04 20:00N 37°44' W 025°40'0 0.0
2018-Jun-04 19:27N 37°44' W 025°40'0 0.0
2018-Jun-04 19:00N 37°44' W 025°40'0 0.0
2018-Jun-04 18:24N 37°44' W 025°40'0 0.0
2018-Jun-04 18:00N 37°44' W 025°40'0 0.0
2018-Jun-04 17:30N 37°44' W 025°40'0 0.0
2018-Jun-04 16:57N 37°44' W 025°40'0 0.0
2018-Jun-04 16:30N 37°44' W 025°40'0 0.0
2018-Jun-04 15:51N 37°44' W 025°40'0 0.0
2018-Jun-04 15:27N 37°44' W 025°40'0 0.0
2018-Jun-04 14:57N 37°44' W 025°40'0 0.0
2018-Jun-04 14:27N 37°44' W 025°40'0 0.0
2018-Jun-04 13:57N 37°44' W 025°40'0 0.0
2018-Jun-04 13:27N 37°44' W 025°40'  

Dump ship's entire track history